createdAt,value
2023-04-26T00:02:06.900Z,99226.84
2023-04-26T00:04:35.278Z,99225.75
2023-04-26T00:07:03.452Z,99222.34
2023-04-26T00:09:30.919Z,99228.78
2023-04-26T00:11:58.930Z,99235.88
2023-04-26T00:14:26.358Z,99234.09
2023-04-26T00:16:53.729Z,99233.09
2023-04-26T00:19:21.433Z,99234.22
2023-04-26T00:21:48.854Z,99240.97
2023-04-26T00:24:16.485Z,99244.28
2023-04-26T00:26:44.254Z,99246.25
2023-04-26T00:29:11.762Z,99249.03
2023-04-26T00:31:40.174Z,99247.09
2023-04-26T00:34:07.930Z,99248.13
2023-04-26T00:36:35.412Z,99258.31
2023-04-26T00:39:03.092Z,99253.19
2023-04-26T00:41:30.778Z,99265.41
2023-04-26T00:43:58.492Z,99259.47
2023-04-26T00:46:28.824Z,99270.53
2023-04-26T00:48:57.019Z,99265.53
2023-04-26T00:51:24.699Z,99273.78
2023-04-26T00:53:52.465Z,99270.13
2023-04-26T00:56:21.379Z,99271.53
2023-04-26T00:58:48.973Z,99269.91
2023-04-26T01:01:16.622Z,99264.72
2023-04-26T01:03:46.911Z,99269.94
2023-04-26T01:06:14.414Z,99269.81
2023-04-26T01:08:41.997Z,99270.06
2023-04-26T01:11:09.724Z,99264.84
2023-04-26T01:13:37.868Z,99271.34
2023-04-26T01:16:08.200Z,99272.22
2023-04-26T01:18:36.118Z,99278.13
2023-04-26T01:21:04.962Z,99280.78
2023-04-26T01:23:32.481Z,99279.94
2023-04-26T01:26:00.333Z,99280.09
2023-04-26T01:28:27.733Z,99276.97
2023-04-26T01:30:55.116Z,99289.84
2023-04-26T01:33:23.448Z,99282.91
2023-04-26T01:35:52.072Z,99302.13
2023-04-26T01:38:20.172Z,99306.59
2023-04-26T01:40:47.898Z,99303.94
2023-04-26T01:43:15.632Z,99301.28
2023-04-26T01:45:49.417Z,99305.59
2023-04-26T01:48:29.152Z,99304.56
2023-04-26T01:50:56.541Z,99311.69
2023-04-26T01:53:23.957Z,99303.88
2023-04-26T01:55:51.657Z,99310.81
2023-04-26T01:58:19.106Z,99305.84
2023-04-26T02:00:46.500Z,99315.31
2023-04-26T02:03:14.220Z,99310.88
2023-04-26T02:05:41.832Z,99306.63
2023-04-26T02:08:09.194Z,99317.75
2023-04-26T02:10:37.057Z,99322.37
2023-04-26T02:13:04.446Z,99326.81
2023-04-26T02:15:31.807Z,99329.44
2023-04-26T02:17:59.675Z,99315.37
2023-04-26T02:20:27.182Z,99315.19
2023-04-26T02:22:54.574Z,99317.03
2023-04-26T02:25:22.430Z,99316.16
2023-04-26T02:27:50.355Z,99318.91
2023-04-26T02:30:17.818Z,99323.13
2023-04-26T02:32:45.225Z,99320.53
2023-04-26T02:35:13.031Z,99331.06
2023-04-26T02:37:40.688Z,99330.03
2023-04-26T02:40:10.929Z,99328.28
2023-04-26T02:42:38.631Z,99333.75
2023-04-26T02:45:07.119Z,99326.00
2023-04-26T02:47:36.896Z,99329.53
2023-04-26T02:50:09.064Z,99323.44
2023-04-26T02:52:36.915Z,99328.66
2023-04-26T02:55:05.499Z,99331.09
2023-04-26T02:57:33.391Z,99345.25
2023-04-26T03:00:01.249Z,99345.16
2023-04-26T03:02:29.591Z,99335.06
2023-04-26T03:04:57.201Z,99341.25
2023-04-26T03:07:24.568Z,99355.09
2023-04-26T03:09:52.274Z,99356.06
2023-04-26T03:12:19.895Z,99359.44
2023-04-26T03:14:47.315Z,99357.88
2023-04-26T03:17:15.015Z,99364.62
2023-04-26T03:19:42.483Z,99368.16
2023-04-26T03:22:11.426Z,99376.81
2023-04-26T03:24:39.259Z,99378.44
2023-04-26T03:27:07.014Z,99373.44
2023-04-26T03:29:34.450Z,99379.53
2023-04-26T03:32:02.316Z,99381.19
2023-04-26T03:34:29.702Z,99383.94
2023-04-26T03:36:57.372Z,99396.06
2023-04-26T03:39:25.336Z,99389.84
2023-04-26T03:41:53.255Z,99403.56
2023-04-26T03:44:20.621Z,99392.22
2023-04-26T03:46:48.302Z,99398.09
2023-04-26T03:49:15.918Z,99397.31
2023-04-26T03:51:43.310Z,99394.66
2023-04-26T03:54:11.178Z,99396.34
2023-04-26T03:56:39.996Z,99401.56
2023-04-26T03:59:09.345Z,99402.28
2023-04-26T04:01:38.072Z,99405.78
2023-04-26T04:04:06.012Z,99411.75
2023-04-26T04:06:33.985Z,99411.63
2023-04-26T04:09:01.699Z,99417.88
2023-04-26T04:11:29.375Z,99421.25
2023-04-26T04:13:56.946Z,99416.88
2023-04-26T04:16:24.366Z,99432.44
2023-04-26T04:18:52.386Z,99431.69
2023-04-26T04:21:20.011Z,99442.06
2023-04-26T04:23:47.708Z,99443.81
2023-04-26T04:26:16.203Z,99450.81
2023-04-26T04:28:45.518Z,99459.41
2023-04-26T04:31:13.920Z,99461.94
2023-04-26T04:33:41.657Z,99460.37
2023-04-26T04:36:10.003Z,99465.72
2023-04-26T04:38:37.457Z,99465.75
2023-04-26T04:41:05.579Z,99466.69
2023-04-26T04:43:34.576Z,99464.09
2023-04-26T04:46:02.132Z,99470.19
2023-04-26T04:48:29.986Z,99478.94
2023-04-26T04:50:58.374Z,99477.25
2023-04-26T04:53:26.259Z,99483.25
2023-04-26T04:55:54.018Z,99492.00
2023-04-26T04:58:22.463Z,99491.06
2023-04-26T05:00:51.489Z,99497.97
2023-04-26T05:03:20.163Z,99496.19
2023-04-26T05:05:47.875Z,99494.59
2023-04-26T05:08:15.464Z,99500.63
2023-04-26T05:10:43.180Z,99502.25
2023-04-26T05:13:10.681Z,99501.34
2023-04-26T05:15:38.582Z,99496.91
2023-04-26T05:18:06.401Z,99509.00
2023-04-26T05:20:33.914Z,99512.59
2023-04-26T05:23:01.348Z,99513.37
2023-04-26T05:25:29.303Z,99512.38
2023-04-26T05:27:57.096Z,99516.00
2023-04-26T05:30:24.870Z,99514.25
2023-04-26T05:32:52.807Z,99517.75
2023-04-26T05:35:23.168Z,99517.62
2023-04-26T05:37:50.618Z,99518.34
2023-04-26T05:40:18.914Z,99522.69
2023-04-26T05:42:46.378Z,99526.28
2023-04-26T05:45:14.008Z,99521.78
2023-04-26T05:47:41.867Z,99529.66
2023-04-26T05:50:09.783Z,99514.84
2023-04-26T05:52:37.993Z,99523.56
2023-04-26T05:55:06.966Z,99519.88
2023-04-26T05:57:34.679Z,99519.88
2023-04-26T06:00:05.387Z,99521.34
2023-04-26T06:02:41.582Z,99522.94
2023-04-26T06:05:11.493Z,99529.97
2023-04-26T06:07:39.448Z,99523.69
2023-04-26T06:10:07.420Z,99529.47
2023-04-26T06:12:35.401Z,99530.28
2023-04-26T06:15:03.772Z,99524.44
2023-04-26T06:17:32.203Z,99531.62
2023-04-26T06:19:59.924Z,99531.84
2023-04-26T06:22:28.180Z,99519.41
2023-04-26T06:24:55.621Z,99535.03
2023-04-26T06:27:23.328Z,99529.75
2023-04-26T06:29:51.752Z,99538.28
2023-04-26T06:32:19.716Z,99529.69
2023-04-26T06:34:47.404Z,99532.47
2023-04-26T06:37:14.845Z,99527.59
2023-04-26T06:39:42.677Z,99525.56
2023-04-26T06:42:11.900Z,99528.06
2023-04-26T06:44:40.950Z,99532.16
2023-04-26T06:47:09.548Z,99534.53
2023-04-26T06:49:37.335Z,99534.50
2023-04-26T06:52:08.278Z,99541.78
2023-04-26T06:54:46.019Z,99539.28
2023-04-26T06:57:21.536Z,99538.63
2023-04-26T06:59:49.285Z,99525.41
2023-04-26T07:02:16.754Z,99541.06
2023-04-26T07:04:44.577Z,99547.62
2023-04-26T07:07:13.658Z,99535.53
2023-04-26T07:09:41.738Z,99543.94
2023-04-26T07:12:11.699Z,99538.66
2023-04-26T07:14:40.808Z,99537.44
2023-04-26T07:17:08.260Z,99538.13
2023-04-26T07:19:35.874Z,99541.50
2023-04-26T07:22:04.690Z,99554.41
2023-04-26T07:24:32.104Z,99553.31
2023-04-26T07:26:59.635Z,99546.97
2023-04-26T07:29:27.580Z,99564.97
2023-04-26T07:31:55.013Z,99557.91
2023-04-26T07:34:22.477Z,99555.03
2023-04-26T07:36:50.108Z,99563.62
2023-04-26T07:39:17.468Z,99566.53
2023-04-26T07:41:44.900Z,99571.09
2023-04-26T07:44:12.649Z,99568.06
2023-04-26T07:46:40.132Z,99563.47
2023-04-26T07:49:07.508Z,99553.44
2023-04-26T07:51:36.746Z,99567.47
2023-04-26T07:54:04.668Z,99565.78
2023-04-26T07:56:32.567Z,99573.56
2023-04-26T07:59:00.247Z,99576.03
2023-04-26T08:01:28.079Z,99578.06
2023-04-26T08:03:56.202Z,99586.72
2023-04-26T08:06:24.490Z,99567.97
2023-04-26T08:08:53.730Z,99586.53
2023-04-26T08:11:21.807Z,99579.38
2023-04-26T08:13:49.236Z,99592.88
2023-04-26T08:16:16.720Z,99594.34
2023-04-26T08:18:46.787Z,99595.72
2023-04-26T08:21:15.125Z,99598.28
2023-04-26T08:23:42.560Z,99590.56
2023-04-26T08:26:10.340Z,99605.22
2023-04-26T08:28:38.137Z,99605.50
2023-04-26T08:31:05.634Z,99604.59
2023-04-26T08:33:33.415Z,99608.41
2023-04-26T08:36:03.666Z,99610.09
2023-04-26T08:38:32.318Z,99609.78
2023-04-26T08:41:03.037Z,99609.16
2023-04-26T08:43:30.559Z,99612.72
2023-04-26T08:45:59.353Z,99614.59
2023-04-26T08:48:28.335Z,99622.41
2023-04-26T08:50:55.906Z,99619.78
2023-04-26T08:53:23.550Z,99628.94
2023-04-26T08:55:51.437Z,99621.47
2023-04-26T08:58:19.232Z,99621.25
2023-04-26T09:00:47.177Z,99632.06
2023-04-26T09:03:15.168Z,99629.47
2023-04-26T09:05:44.349Z,99629.09
2023-04-26T09:08:18.400Z,99623.44
2023-04-26T09:10:46.448Z,99635.63
2023-04-26T09:13:14.537Z,99614.69
2023-04-26T09:15:42.284Z,99609.53
2023-04-26T09:18:17.318Z,99608.91
2023-04-26T09:20:45.612Z,99605.47
2023-04-26T09:23:13.514Z,99612.44
2023-04-26T09:25:41.369Z,99614.22
2023-04-26T09:28:22.751Z,99609.66
2023-04-26T09:30:50.920Z,99610.91
2023-04-26T09:33:19.448Z,99612.69
2023-04-26T09:35:46.973Z,99611.81
2023-04-26T09:38:16.801Z,99609.31
2023-04-26T09:40:46.548Z,99614.84
2023-04-26T09:43:19.379Z,99615.81
2023-04-26T09:45:54.919Z,99599.91
2023-04-26T09:48:23.328Z,99604.37
2023-04-26T09:50:53.113Z,99618.44
2023-04-26T09:53:46.546Z,99615.62
2023-04-26T09:56:19.810Z,99612.69
2023-04-26T09:58:47.086Z,99617.84
2023-04-26T10:01:19.005Z,99633.91
2023-04-26T10:03:47.246Z,99620.72
2023-04-26T10:06:15.827Z,99608.00
2023-04-26T10:08:44.345Z,99624.81
2023-04-26T10:11:13.114Z,99621.44
2023-04-26T10:13:41.785Z,99615.56
2023-04-26T10:16:10.146Z,99614.56
2023-04-26T10:18:38.172Z,99612.19
2023-04-26T10:21:12.948Z,99618.09
2023-04-26T10:23:41.496Z,99618.44
2023-04-26T10:26:47.290Z,99612.09
2023-04-26T10:29:14.992Z,99623.44
2023-04-26T10:32:01.804Z,99620.69
2023-04-26T10:34:33.765Z,99624.03
2023-04-26T10:37:11.417Z,99627.34
2023-04-26T10:39:40.361Z,99617.84
2023-04-26T10:42:30.916Z,99637.41
2023-04-26T10:45:27.932Z,99629.94
2023-04-26T10:48:19.793Z,99618.97
2023-04-26T10:51:04.932Z,99628.28
2023-04-26T10:53:53.872Z,99631.34
2023-04-26T10:56:24.706Z,99633.66
2023-04-26T10:59:22.418Z,99624.59
2023-04-26T11:02:00.860Z,99623.81
2023-04-26T11:04:51.573Z,99621.97
2023-04-26T11:07:39.083Z,99614.81
2023-04-26T11:10:10.751Z,99610.72
2023-04-26T11:12:41.934Z,99614.84
2023-04-26T11:15:12.800Z,99615.59
2023-04-26T11:17:40.507Z,99609.00
2023-04-26T11:20:16.348Z,99626.25
2023-04-26T11:22:44.084Z,99612.66
2023-04-26T11:25:13.258Z,99618.19
2023-04-26T11:27:43.296Z,99613.88
2023-04-26T11:30:11.832Z,99612.69
2023-04-26T11:32:39.340Z,99623.03
2023-04-26T11:35:07.223Z,99624.75
2023-04-26T11:37:34.982Z,99618.59
2023-04-26T11:40:02.437Z,99616.69
2023-04-26T11:42:33.210Z,99603.34
2023-04-26T11:45:01.676Z,99615.16
2023-04-26T11:47:30.957Z,99619.31
2023-04-26T11:49:58.443Z,99617.44
2023-04-26T11:52:26.562Z,99609.03
2023-04-26T11:55:07.247Z,99618.84
2023-04-26T11:57:35.112Z,99628.28
2023-04-26T12:00:15.008Z,99623.31
2023-04-26T12:02:47.029Z,99620.47
2023-04-26T12:05:22.726Z,99625.91
2023-04-26T12:07:53.759Z,99629.03
2023-04-26T12:10:32.451Z,99629.22
2023-04-26T12:13:00.289Z,99639.00
2023-04-26T12:15:46.249Z,99632.06
2023-04-26T12:18:14.745Z,99623.66
2023-04-26T12:20:43.118Z,99620.78
2023-04-26T12:23:16.249Z,99626.03
2023-04-26T12:25:57.377Z,99611.78
2023-04-26T12:28:24.930Z,99616.16
2023-04-26T12:30:52.701Z,99602.34
2023-04-26T12:33:23.027Z,99630.56
2023-04-26T12:35:51.591Z,99635.87
2023-04-26T12:38:19.863Z,99635.84
2023-04-26T12:40:47.313Z,99643.44
2023-04-26T12:43:16.784Z,99640.69
2023-04-26T12:45:44.644Z,99637.25
2023-04-26T12:48:12.477Z,99639.31
2023-04-26T12:50:40.191Z,99627.75
2023-04-26T12:53:07.909Z,99640.34
2023-04-26T12:55:35.607Z,99643.37
2023-04-26T12:58:03.375Z,99647.56
2023-04-26T13:00:31.260Z,99653.34
2023-04-26T13:02:58.990Z,99651.53
2023-04-26T13:05:26.734Z,99642.37
2023-04-26T13:07:54.534Z,99643.56
2023-04-26T13:10:22.125Z,99642.09
2023-04-26T13:12:49.633Z,99650.66
2023-04-26T13:15:17.885Z,99648.31
2023-04-26T13:17:45.750Z,99653.09
2023-04-26T13:20:13.884Z,99664.25
2023-04-26T13:22:43.195Z,99652.56
2023-04-26T13:25:11.189Z,99652.78
2023-04-26T13:27:39.233Z,99652.56
2023-04-26T13:30:08.885Z,99641.44
2023-04-26T13:32:36.679Z,99654.53
2023-04-26T13:35:04.398Z,99663.91
2023-04-26T13:37:32.619Z,99664.13
2023-04-26T13:40:00.172Z,99671.47
2023-04-26T13:42:28.183Z,99672.63
2023-04-26T13:44:55.880Z,99670.34
2023-04-26T13:47:23.372Z,99674.28
2023-04-26T13:49:51.089Z,99669.72
2023-04-26T13:52:18.771Z,99670.28
2023-04-26T13:54:46.531Z,99661.06
2023-04-26T13:57:14.074Z,99673.13
2023-04-26T13:59:41.750Z,99665.19
2023-04-26T14:02:09.331Z,99665.97
2023-04-26T14:04:37.383Z,99683.44
2023-04-26T14:07:05.606Z,99672.53
2023-04-26T14:09:33.146Z,99675.94
2023-04-26T14:12:07.942Z,99683.09
2023-04-26T14:14:37.108Z,99677.66
2023-04-26T14:17:04.795Z,99698.19
2023-04-26T14:19:32.365Z,99698.19
2023-04-26T14:21:59.795Z,99699.88
2023-04-26T14:24:27.554Z,99696.16
2023-04-26T14:26:55.056Z,99700.56
2023-04-26T14:29:22.456Z,99692.28
2023-04-26T14:31:50.954Z,99696.25
2023-04-26T14:34:18.590Z,99692.97
2023-04-26T14:36:46.372Z,99700.31
2023-04-26T14:39:14.045Z,99697.91
2023-04-26T14:41:42.513Z,99702.19
2023-04-26T14:44:10.516Z,99693.81
2023-04-26T14:46:38.265Z,99695.56
2023-04-26T14:49:06.359Z,99705.44
2023-04-26T14:51:33.890Z,99705.75
2023-04-26T14:54:01.905Z,99704.50
2023-04-26T14:56:33.859Z,99701.72
2023-04-26T14:59:01.735Z,99698.59
2023-04-26T15:01:30.140Z,99692.47
2023-04-26T15:04:00.245Z,99700.09
2023-04-26T15:06:30.808Z,99698.56
2023-04-26T15:08:58.427Z,99695.13
2023-04-26T15:11:26.150Z,99698.47
2023-04-26T15:13:53.892Z,99696.00
2023-04-26T15:16:21.759Z,99699.97
2023-04-26T15:18:51.708Z,99705.13
2023-04-26T15:21:22.926Z,99709.78
2023-04-26T15:23:50.526Z,99713.50
2023-04-26T15:26:18.123Z,99700.47
2023-04-26T15:28:45.819Z,99708.59
2023-04-26T15:31:13.595Z,99701.59
2023-04-26T15:33:41.652Z,99704.44
2023-04-26T15:36:09.573Z,99711.19
2023-04-26T15:38:36.967Z,99700.91
2023-04-26T15:41:04.629Z,99706.75
2023-04-26T15:43:32.350Z,99710.22
2023-04-26T15:45:59.783Z,99706.25
2023-04-26T15:48:27.219Z,99710.09
2023-04-26T15:50:56.622Z,99706.72
2023-04-26T15:53:24.650Z,99707.28
2023-04-26T15:55:52.093Z,99714.88
2023-04-26T15:58:19.844Z,99718.91
2023-04-26T16:00:47.264Z,99714.50
2023-04-26T16:03:15.100Z,99713.84
2023-04-26T16:05:42.701Z,99720.16
2023-04-26T16:08:10.479Z,99721.94
2023-04-26T16:10:38.496Z,99725.66
2023-04-26T16:13:06.030Z,99730.66
2023-04-26T16:15:33.576Z,99728.75
2023-04-26T16:18:01.574Z,99729.81
2023-04-26T16:20:29.013Z,99742.63
2023-04-26T16:22:56.440Z,99736.53
2023-04-26T16:25:24.144Z,99745.16
2023-04-26T16:27:51.621Z,99738.78
2023-04-26T16:30:19.129Z,99756.19
2023-04-26T16:32:46.790Z,99745.34
2023-04-26T16:35:14.406Z,99742.56
2023-04-26T16:37:44.235Z,99742.09
2023-04-26T16:40:13.436Z,99738.41
2023-04-26T16:42:44.472Z,99730.94
2023-04-26T16:45:15.528Z,99736.22
2023-04-26T16:47:43.884Z,99746.09
2023-04-26T16:50:11.701Z,99744.50
2023-04-26T16:52:39.102Z,99747.81
2023-04-26T16:55:07.100Z,99746.69
2023-04-26T16:57:34.853Z,99738.19
2023-04-26T17:00:02.612Z,99747.66
2023-04-26T17:02:30.186Z,99757.13
2023-04-26T17:04:58.093Z,99761.53
2023-04-26T17:07:25.710Z,99760.94
2023-04-26T17:09:55.044Z,99759.28
2023-04-26T17:12:22.713Z,99761.28
2023-04-26T17:14:50.100Z,99763.50
2023-04-26T17:17:17.534Z,99764.97
2023-04-26T17:19:45.644Z,99760.34
2023-04-26T17:22:13.147Z,99758.22
2023-04-26T17:24:40.709Z,99755.25
2023-04-26T17:27:08.633Z,99762.72
2023-04-26T17:29:36.203Z,99762.59
2023-04-26T17:32:03.861Z,99762.31
2023-04-26T17:34:32.324Z,99765.94
2023-04-26T17:37:00.004Z,99783.16
2023-04-26T17:39:27.437Z,99776.22
2023-04-26T17:41:55.141Z,99789.63
2023-04-26T17:44:22.980Z,99782.72
2023-04-26T17:46:50.384Z,99787.25
2023-04-26T17:49:18.155Z,99790.84
2023-04-26T17:51:45.539Z,99799.25
2023-04-26T17:54:14.098Z,99804.22
2023-04-26T17:56:43.469Z,99804.59
2023-04-26T17:59:11.263Z,99809.91
2023-04-26T18:01:38.739Z,99816.41
2023-04-26T18:04:06.530Z,99818.81
2023-04-26T18:06:34.038Z,99812.25
2023-04-26T18:09:01.642Z,99812.94
2023-04-26T18:11:31.868Z,99813.91
2023-04-26T18:13:59.353Z,99815.56
2023-04-26T18:16:26.889Z,99824.47
2023-04-26T18:18:54.726Z,99835.28
2023-04-26T18:21:22.097Z,99835.53
2023-04-26T18:23:49.472Z,99835.66
2023-04-26T18:26:17.149Z,99839.91
2023-04-26T18:28:46.101Z,99845.31
2023-04-26T18:31:13.577Z,99842.59
2023-04-26T18:33:41.300Z,99845.19
2023-04-26T18:36:08.888Z,99847.97
2023-04-26T18:38:36.298Z,99848.72
2023-04-26T18:41:04.019Z,99850.47
2023-04-26T18:43:31.472Z,99866.22
2023-04-26T18:45:59.128Z,99867.00
2023-04-26T18:48:26.950Z,99868.72
2023-04-26T18:50:55.098Z,99873.94
2023-04-26T18:53:23.595Z,99873.13
2023-04-26T18:55:53.065Z,99873.13
2023-04-26T18:58:20.447Z,99887.00
2023-04-26T19:00:49.763Z,99888.72
2023-04-26T19:03:17.753Z,99883.56
2023-04-26T19:05:45.619Z,99885.38
2023-04-26T19:08:13.299Z,99887.13
2023-04-26T19:10:41.134Z,99887.13
2023-04-26T19:13:08.579Z,99890.75
2023-04-26T19:15:36.497Z,99886.34
2023-04-26T19:18:04.545Z,99890.78
2023-04-26T19:20:32.173Z,99896.88
2023-04-26T19:22:59.569Z,99887.37
2023-04-26T19:25:27.365Z,99892.66
2023-04-26T19:27:54.838Z,99888.38
2023-04-26T19:30:22.304Z,99885.81
2023-04-26T19:32:50.063Z,99901.53
2023-04-26T19:35:17.495Z,99898.97
2023-04-26T19:37:44.906Z,99906.09
2023-04-26T19:40:12.968Z,99900.06
2023-04-26T19:42:40.411Z,99905.22
2023-04-26T19:45:08.166Z,99904.34
2023-04-26T19:47:35.858Z,99908.69
2023-04-26T19:50:04.100Z,99914.81
2023-04-26T19:52:31.494Z,99916.50
2023-04-26T19:54:59.195Z,99914.81
2023-04-26T19:57:26.824Z,99918.34
2023-04-26T19:59:54.194Z,99922.66
2023-04-26T20:02:21.929Z,99910.56
2023-04-26T20:04:49.722Z,99910.56
2023-04-26T20:07:17.205Z,99922.75
2023-04-26T20:09:44.916Z,99915.81
2023-04-26T20:12:12.673Z,99914.94
2023-04-26T20:14:40.102Z,99915.81
2023-04-26T20:17:07.559Z,99914.94
2023-04-26T20:19:35.653Z,99916.69
2023-04-26T20:22:03.004Z,99921.03
2023-04-26T20:24:30.526Z,99914.97
2023-04-26T20:27:02.056Z,99908.94
2023-04-26T20:29:29.865Z,99913.28
2023-04-26T20:31:57.657Z,99916.78
2023-04-26T20:34:25.813Z,99916.78
2023-04-26T20:36:57.488Z,99922.00
2023-04-26T20:39:34.166Z,99926.34
2023-04-26T20:42:01.649Z,99930.66
2023-04-26T20:44:30.019Z,99929.81
2023-04-26T20:46:57.516Z,99924.63
2023-04-26T20:49:24.950Z,99928.06
2023-04-26T20:51:52.628Z,99933.25
2023-04-26T20:54:20.888Z,99936.72
2023-04-26T20:56:48.306Z,99938.47
2023-04-26T20:59:15.988Z,99939.34
2023-04-26T21:01:43.436Z,99943.66
2023-04-26T21:04:11.179Z,99951.47
2023-04-26T21:06:39.076Z,99951.47
2023-04-26T21:09:06.821Z,99944.53
2023-04-26T21:11:34.509Z,99944.56
2023-04-26T21:14:02.522Z,99959.31
2023-04-26T21:16:30.452Z,99962.75
2023-04-26T21:18:57.890Z,99954.97
2023-04-26T21:21:27.654Z,99957.56
2023-04-26T21:23:55.618Z,99956.69
2023-04-26T21:26:22.976Z,99965.38
2023-04-26T21:28:50.967Z,99961.03
2023-04-26T21:31:18.874Z,99950.63
2023-04-26T21:33:46.453Z,99961.88
2023-04-26T21:36:14.155Z,99963.63
2023-04-26T21:38:42.105Z,99968.84
2023-04-26T21:41:09.527Z,99973.13
2023-04-26T21:43:37.211Z,99977.47
2023-04-26T21:46:04.754Z,99981.75
2023-04-26T21:48:32.202Z,99983.44
2023-04-26T21:51:00.555Z,99984.34
2023-04-26T21:53:28.178Z,99992.06
2023-04-26T21:55:56.032Z,99987.69
2023-04-26T21:58:23.777Z,99996.38
2023-04-26T22:00:51.799Z,99991.09
2023-04-26T22:03:20.060Z,99998.00
2023-04-26T22:05:47.595Z,99990.22
2023-04-26T22:08:15.051Z,99995.38
2023-04-26T22:10:42.958Z,99993.63
2023-04-26T22:13:10.441Z,99999.72
2023-04-26T22:15:37.809Z,100004.84
2023-04-26T22:18:05.595Z,100006.50
2023-04-26T22:20:33.146Z,100006.47
2023-04-26T22:23:00.526Z,100008.25
2023-04-26T22:25:28.229Z,100014.31
2023-04-26T22:27:55.909Z,100017.84
2023-04-26T22:30:25.820Z,100018.59
2023-04-26T22:32:55.518Z,100021.16
2023-04-26T22:35:24.604Z,100017.66
2023-04-26T22:37:52.050Z,100031.47
2023-04-26T22:40:20.417Z,100032.28
2023-04-26T22:42:48.124Z,100033.03
2023-04-26T22:45:15.841Z,100032.22
2023-04-26T22:47:43.583Z,100031.31
2023-04-26T22:50:11.683Z,100033.00
2023-04-26T22:52:39.103Z,100032.09
2023-04-26T22:55:07.432Z,100037.31
2023-04-26T22:57:35.289Z,100034.69
2023-04-26T23:00:04.386Z,100037.25
2023-04-26T23:02:32.616Z,100041.53
2023-04-26T23:05:00.395Z,100043.25
2023-04-26T23:07:27.952Z,100043.16
2023-04-26T23:09:55.686Z,100044.03
2023-04-26T23:12:23.699Z,100044.84
2023-04-26T23:14:51.181Z,100043.97
2023-04-26T23:17:20.401Z,100043.91
2023-04-26T23:19:47.913Z,100048.34
2023-04-26T23:22:15.672Z,100044.97
2023-04-26T23:24:43.403Z,100050.22
2023-04-26T23:27:10.983Z,100054.53
2023-04-26T23:29:38.459Z,100064.00
2023-04-26T23:32:06.166Z,100060.59
2023-04-26T23:34:33.543Z,100065.66
2023-04-26T23:37:07.328Z,100074.47
2023-04-26T23:39:36.230Z,100070.16
2023-04-26T23:42:04.138Z,100067.63
2023-04-26T23:44:31.605Z,100064.88
2023-04-26T23:46:59.356Z,100065.00
2023-04-26T23:49:27.150Z,100063.28
2023-04-26T23:51:54.575Z,100066.78
2023-04-26T23:54:22.314Z,100065.03
2023-04-26T23:56:49.735Z,100057.28
2023-04-26T23:59:17.174Z,100065.03
